createdAt,value
2022-08-14T00:02:04.026Z,44.55
2022-08-14T00:04:35.591Z,32.88
2022-08-14T00:07:11.121Z,37.42
2022-08-14T00:09:56.205Z,32.05
2022-08-14T00:12:33.726Z,32.45
2022-08-14T00:15:11.135Z,38.53
2022-08-14T00:17:47.131Z,33.70
2022-08-14T00:20:16.278Z,37.38
2022-08-14T00:22:57.617Z,29.58
2022-08-14T00:25:30.579Z,42.88
2022-08-14T00:28:14.966Z,34.83
2022-08-14T00:30:46.955Z,37.72
2022-08-14T00:33:16.084Z,40.30
2022-08-14T00:36:35.132Z,45.45
2022-08-14T00:38:34.618Z,42.72
2022-08-14T00:41:10.849Z,33.53
2022-08-14T00:43:38.298Z,34.42
2022-08-14T00:46:23.440Z,31.55
2022-08-14T00:48:59.258Z,34.97
2022-08-14T00:51:37.846Z,34.65
2022-08-14T00:54:20.949Z,29.88
2022-08-14T00:56:55.519Z,27.42
2022-08-14T00:59:28.422Z,32.95
2022-08-14T01:01:58.975Z,27.70
2022-08-14T01:04:51.258Z,29.92
2022-08-14T01:07:19.889Z,30.65
2022-08-14T01:10:05.457Z,32.67
2022-08-14T01:12:33.922Z,37.15
2022-08-14T01:15:09.492Z,24.85
2022-08-14T01:17:55.600Z,30.83
2022-08-14T01:20:41.400Z,24.88
2022-08-14T01:23:16.504Z,26.90
2022-08-14T01:25:49.109Z,37.40
2022-08-14T01:28:46.999Z,27.67
2022-08-14T01:31:14.332Z,25.30
2022-08-14T01:33:59.591Z,23.08
2022-08-14T01:36:39.320Z,31.77
2022-08-14T01:39:12.853Z,27.23
2022-08-14T01:41:42.723Z,25.40
2022-08-14T01:44:31.272Z,24.50
2022-08-14T01:47:02.134Z,26.13
2022-08-14T01:49:35.196Z,29.70
2022-08-14T01:52:04.375Z,24.85
2022-08-14T01:54:40.480Z,24.20
2022-08-14T01:57:11.576Z,23.35
2022-08-14T01:59:41.104Z,26.77
2022-08-14T02:02:14.680Z,29.98
2022-08-14T02:04:55.407Z,25.55
2022-08-14T02:07:44.758Z,27.45
2022-08-14T02:10:15.878Z,31.23
2022-08-14T02:12:48.843Z,45.88
2022-08-14T02:15:22.045Z,46.75
2022-08-14T02:17:50.482Z,59.20
2022-08-14T02:20:23.567Z,34.47
2022-08-14T02:22:54.526Z,46.47
2022-08-14T02:25:22.848Z,30.35
2022-08-14T02:33:12.708Z,39.03
2022-08-14T02:35:52.949Z,29.35
2022-08-14T02:38:30.397Z,32.78
2022-08-14T02:41:02.726Z,33.67
2022-08-14T02:43:46.595Z,41.88
2022-08-14T02:46:20.189Z,50.47
2022-08-14T02:49:03.569Z,45.50
2022-08-14T02:51:35.021Z,35.63
2022-08-14T02:54:07.394Z,32.15
2022-08-14T02:57:14.332Z,34.92
2022-08-14T03:02:02.080Z,32.13
2022-08-14T03:04:30.299Z,26.73
2022-08-14T03:07:07.207Z,36.25
2022-08-14T03:10:25.983Z,26.90
2022-08-14T03:12:31.582Z,32.70
2022-08-14T03:15:14.184Z,31.13
2022-08-14T03:17:57.417Z,33.03
2022-08-14T03:20:30.468Z,33.17
2022-08-14T03:23:03.055Z,27.33
2022-08-14T03:25:34.368Z,30.45
2022-08-14T03:28:08.120Z,39.40
2022-08-14T03:30:42.123Z,26.98
2022-08-14T03:33:12.633Z,30.13
2022-08-14T03:36:05.396Z,29.17
2022-08-14T03:39:12.833Z,25.25
2022-08-14T03:41:23.624Z,30.83
2022-08-14T03:43:57.741Z,28.70
2022-08-14T03:46:52.359Z,38.28
2022-08-14T03:49:24.238Z,28.95
2022-08-14T03:51:57.457Z,35.35
2022-08-14T03:54:26.200Z,34.60
2022-08-14T03:56:54.742Z,26.73
2022-08-14T03:59:22.216Z,28.33
2022-08-14T04:01:58.043Z,33.47
2022-08-14T04:04:33.541Z,25.25
2022-08-14T04:07:01.060Z,31.95
2022-08-14T04:09:29.415Z,25.58
2022-08-14T04:11:58.291Z,28.42
2022-08-14T04:14:28.667Z,25.25
2022-08-14T04:16:55.728Z,24.20
2022-08-14T04:19:24.667Z,28.95
2022-08-14T04:22:02.302Z,22.23
2022-08-14T04:24:38.569Z,26.20
2022-08-14T04:27:11.884Z,29.10
2022-08-14T04:29:44.895Z,30.98
2022-08-14T04:32:57.682Z,30.20
2022-08-14T04:35:07.716Z,28.17
2022-08-14T04:37:56.270Z,24.83
2022-08-14T04:40:42.044Z,24.05
2022-08-14T04:43:38.689Z,24.58
2022-08-14T04:46:55.304Z,25.27
2022-08-14T04:48:59.783Z,21.70
2022-08-14T04:51:28.247Z,22.00
2022-08-14T04:53:57.544Z,21.27
2022-08-14T04:56:30.817Z,19.95
2022-08-14T04:59:10.195Z,18.63
2022-08-14T05:01:47.827Z,24.77
2022-08-14T05:04:20.064Z,23.25
2022-08-14T05:06:49.538Z,19.73
2022-08-14T05:09:21.580Z,22.00
2022-08-14T05:11:51.514Z,19.85
2022-08-14T05:14:42.814Z,20.90
2022-08-14T05:17:11.576Z,28.25
2022-08-14T05:19:44.941Z,23.48
2022-08-14T05:22:26.930Z,23.50
2022-08-14T05:24:54.328Z,23.48
2022-08-14T05:27:23.078Z,24.58
2022-08-14T05:29:53.701Z,24.85
2022-08-14T05:32:27.747Z,18.92
2022-08-14T05:34:59.587Z,21.38
2022-08-14T05:37:29.569Z,23.88
2022-08-14T05:39:58.759Z,22.65
2022-08-14T05:42:27.071Z,23.23
2022-08-14T05:44:58.790Z,18.48
2022-08-14T05:47:28.527Z,21.00
2022-08-14T05:49:58.337Z,18.10
2022-08-14T05:52:38.448Z,20.52
2022-08-14T05:55:12.638Z,18.48
2022-08-14T05:58:08.330Z,17.30
2022-08-14T06:00:42.396Z,16.17
2022-08-14T06:03:14.845Z,16.55
2022-08-14T06:05:43.420Z,18.85
2022-08-14T06:08:31.438Z,19.10
2022-08-14T06:11:08.533Z,16.65
2022-08-14T06:13:45.147Z,15.02
2022-08-14T06:16:18.248Z,20.10
2022-08-14T06:18:52.716Z,19.83
2022-08-14T06:21:23.938Z,18.77
2022-08-14T06:23:51.651Z,21.73
2022-08-14T06:26:20.495Z,18.38
2022-08-14T06:28:52.928Z,22.08
2022-08-14T06:31:22.742Z,19.80
2022-08-14T06:35:10.205Z,20.15
2022-08-14T06:36:39.418Z,20.30
2022-08-14T06:39:10.451Z,24.80
2022-08-14T06:41:58.736Z,25.23
2022-08-14T06:44:30.809Z,18.55
2022-08-14T06:47:04.854Z,28.38
2022-08-14T06:49:40.588Z,21.60
2022-08-14T06:52:16.164Z,22.20
2022-08-14T06:54:44.313Z,26.73
2022-08-14T06:57:12.215Z,24.33
2022-08-14T06:59:41.059Z,25.55
2022-08-14T07:02:28.825Z,23.70
2022-08-14T07:05:16.853Z,19.23
2022-08-14T07:07:48.637Z,17.65
2022-08-14T07:10:17.152Z,24.55
2022-08-14T07:13:01.322Z,22.17
2022-08-14T07:15:29.883Z,18.73
2022-08-14T07:18:00.656Z,18.23
2022-08-14T07:20:31.035Z,12.85
2022-08-14T07:23:07.749Z,11.50
2022-08-14T07:25:42.234Z,16.30
